createdAt,value
2023-05-13T00:00:42.211Z,100788.41
2023-05-13T00:03:48.339Z,100789.14
2023-05-13T00:06:53.742Z,100793.02
2023-05-13T00:09:59.898Z,100801.72
2023-05-13T00:12:58.828Z,100792.81
2023-05-13T00:16:04.170Z,100795.09
2023-05-13T00:19:03.173Z,100797.16
2023-05-13T00:22:09.346Z,100796.51
2023-05-13T00:25:15.256Z,100797.70
2023-05-13T00:28:22.113Z,100798.10
2023-05-13T00:31:28.044Z,100794.38
2023-05-13T00:34:32.998Z,100792.51
2023-05-13T00:37:39.610Z,100795.56
2023-05-13T00:40:46.142Z,100795.53
2023-05-13T00:43:52.164Z,100797.52
2023-05-13T00:46:58.090Z,100796.34
2023-05-13T00:50:04.606Z,100794.69
2023-05-13T00:53:09.543Z,100794.30
2023-05-13T00:56:14.543Z,100788.80
2023-05-13T00:59:20.105Z,100792.60
2023-05-13T01:02:52.229Z,100790.67
2023-05-13T01:06:18.544Z,100792.87
2023-05-13T01:09:31.489Z,100794.64
2023-05-13T01:12:52.052Z,100795.80
2023-05-13T01:15:52.090Z,100795.68
2023-05-13T01:18:43.955Z,100796.48
2023-05-13T01:21:37.416Z,100785.19
2023-05-13T01:24:30.366Z,100790.05
2023-05-13T01:27:35.271Z,100787.09
2023-05-13T01:30:41.702Z,100787.39
2023-05-13T01:33:47.579Z,100784.69
2023-05-13T01:36:53.799Z,100786.37
2023-05-13T01:40:00.028Z,100787.19
2023-05-13T01:43:05.572Z,100784.21
2023-05-13T01:46:06.323Z,100780.94
2023-05-13T01:48:52.231Z,100787.25
2023-05-13T01:51:45.191Z,100789.16
2023-05-13T01:54:37.558Z,100789.55
2023-05-13T01:57:44.770Z,100791.05
2023-05-13T02:00:52.106Z,100790.08
2023-05-13T02:03:57.973Z,100785.22
2023-05-13T02:07:04.067Z,100796.37
2023-05-13T02:10:08.878Z,100794.18
2023-05-13T02:13:15.062Z,100790.91
2023-05-13T02:16:21.898Z,100786.10
2023-05-13T02:19:27.431Z,100787.37
2023-05-13T02:22:32.690Z,100795.65
2023-05-13T02:25:39.183Z,100795.16
2023-05-13T02:28:45.274Z,100795.57
2023-05-13T02:31:44.713Z,100797.86
2023-05-13T02:34:51.585Z,100797.89
2023-05-13T02:37:58.320Z,100793.16
2023-05-13T02:41:03.971Z,100792.55
2023-05-13T02:44:08.818Z,100794.83
2023-05-13T02:47:14.937Z,100799.70
2023-05-13T02:50:22.373Z,100809.40
2023-05-13T02:53:28.270Z,100809.78
2023-05-13T02:56:35.469Z,100805.16
2023-05-13T02:59:40.745Z,100814.70
2023-05-13T03:02:46.665Z,100808.33
2023-05-13T03:05:52.396Z,100810.81
2023-05-13T03:08:58.302Z,100814.81
2023-05-13T03:12:05.566Z,100817.55
2023-05-13T03:15:10.630Z,100818.56
2023-05-13T03:18:16.633Z,100816.07
2023-05-13T03:21:22.341Z,100814.59
2023-05-13T03:24:27.882Z,100818.39
2023-05-13T03:27:34.516Z,100813.15
2023-05-13T03:30:39.490Z,100818.65
2023-05-13T03:33:48.327Z,100819.59
2023-05-13T03:36:54.623Z,100823.73
2023-05-13T03:40:00.500Z,100828.94
2023-05-13T03:43:07.231Z,100823.01
2023-05-13T03:46:14.149Z,100827.77
2023-05-13T03:49:20.629Z,100837.45
2023-05-13T03:52:28.655Z,100834.44
2023-05-13T03:55:34.423Z,100833.33
2023-05-13T03:58:41.247Z,100839.39
2023-05-13T04:01:46.505Z,100842.08
2023-05-13T04:04:53.587Z,100841.05
2023-05-13T04:07:59.404Z,100841.25
2023-05-13T04:11:04.799Z,100842.36
2023-05-13T04:14:10.791Z,100848.61
2023-05-13T04:17:15.566Z,100850.89
2023-05-13T04:20:23.722Z,100848.84
2023-05-13T04:23:29.161Z,100850.67
2023-05-13T04:26:28.132Z,100855.03
2023-05-13T04:29:33.823Z,100859.68
2023-05-13T04:32:38.813Z,100856.80
2023-05-13T04:35:45.406Z,100857.27
2023-05-13T04:38:50.195Z,100863.58
2023-05-13T04:41:57.190Z,100861.02
2023-05-13T04:45:04.496Z,100866.83
2023-05-13T04:48:10.362Z,100868.33
2023-05-13T04:51:16.790Z,100869.45
2023-05-13T04:54:23.557Z,100866.50
2023-05-13T04:57:27.997Z,100868.56
2023-05-13T05:00:33.471Z,100877.22
2023-05-13T05:03:38.960Z,100867.95
2023-05-13T05:06:43.821Z,100861.97
2023-05-13T05:09:50.509Z,100863.65
2023-05-13T05:12:57.186Z,100871.63
2023-05-13T05:16:03.048Z,100872.08
2023-05-13T05:19:08.317Z,100869.33
2023-05-13T05:22:06.867Z,100869.58
2023-05-13T05:24:52.010Z,100869.91
2023-05-13T05:27:44.261Z,100869.47
2023-05-13T05:30:37.415Z,100872.19
2023-05-13T05:33:45.564Z,100877.13
2023-05-13T05:36:50.894Z,100877.38
2023-05-13T05:39:56.845Z,100884.23
2023-05-13T05:43:04.098Z,100881.51
2023-05-13T05:46:10.134Z,100885.60
2023-05-13T05:49:15.663Z,100896.97
2023-05-13T05:52:23.464Z,100893.25
2023-05-13T05:55:29.168Z,100888.68
2023-05-13T05:58:35.294Z,100890.23
2023-05-13T06:01:43.309Z,100891.64
2023-05-13T06:04:48.585Z,100894.63
2023-05-13T06:07:55.753Z,100894.20
2023-05-13T06:11:03.488Z,100894.41
2023-05-13T06:14:09.097Z,100893.80
2023-05-13T06:17:08.914Z,100891.28
2023-05-13T06:20:08.482Z,100888.31
2023-05-13T06:23:14.216Z,100885.02
2023-05-13T06:26:20.199Z,100883.51
2023-05-13T06:29:25.633Z,100886.25
2023-05-13T06:32:30.465Z,100886.09
2023-05-13T06:35:36.391Z,100886.65
2023-05-13T06:38:41.525Z,100881.16
2023-05-13T06:41:46.868Z,100879.89
2023-05-13T06:44:55.137Z,100887.98
2023-05-13T06:48:02.576Z,100880.54
2023-05-13T06:51:09.411Z,100878.53
2023-05-13T06:54:14.498Z,100881.30
2023-05-13T06:57:21.905Z,100882.72
2023-05-13T07:00:29.924Z,100879.09
2023-05-13T07:03:34.911Z,100876.62
2023-05-13T07:06:39.675Z,100879.50
2023-05-13T07:09:45.919Z,100876.34
2023-05-13T07:12:51.578Z,100876.98
2023-05-13T07:15:57.745Z,100865.47
2023-05-13T07:19:02.900Z,100862.41
2023-05-13T07:22:08.312Z,100861.02
2023-05-13T07:25:14.029Z,100856.90
2023-05-13T07:28:19.776Z,100858.98
2023-05-13T07:31:25.504Z,100862.38
2023-05-13T07:34:30.673Z,100852.67
2023-05-13T07:37:37.021Z,100860.95
2023-05-13T07:40:43.413Z,100854.75
2023-05-13T07:43:48.913Z,100854.52
2023-05-13T07:46:55.462Z,100855.66
2023-05-13T07:49:54.469Z,100854.92
2023-05-13T07:53:01.015Z,100855.84
2023-05-13T07:56:06.683Z,100852.81
2023-05-13T07:59:13.264Z,100854.27
2023-05-13T08:02:18.588Z,100842.59
2023-05-13T08:05:25.488Z,100842.03
2023-05-13T08:08:30.501Z,100842.35
2023-05-13T08:11:36.829Z,100844.78
2023-05-13T08:14:42.447Z,100839.78
2023-05-13T08:17:47.834Z,100836.67
2023-05-13T08:20:53.611Z,100842.34
2023-05-13T08:24:00.406Z,100836.84
2023-05-13T08:27:05.116Z,100837.92
2023-05-13T08:30:11.315Z,100849.48
2023-05-13T08:33:18.003Z,100829.53
2023-05-13T08:36:24.569Z,100838.78
2023-05-13T08:39:29.733Z,100823.06
2023-05-13T08:42:34.978Z,100838.62
2023-05-13T08:45:40.526Z,100828.52
2023-05-13T08:48:46.278Z,100820.61
2023-05-13T08:51:51.158Z,100821.73
2023-05-13T08:54:56.683Z,100823.72
2023-05-13T08:57:56.037Z,100821.77
2023-05-13T09:01:03.262Z,100819.25
2023-05-13T09:04:18.522Z,100825.70
2023-05-13T09:07:24.419Z,100817.55
2023-05-13T09:10:30.373Z,100813.88
2023-05-13T09:13:36.109Z,100799.54
2023-05-13T09:16:43.024Z,100799.80
2023-05-13T09:19:49.541Z,100783.48
2023-05-13T09:23:05.804Z,100784.65
2023-05-13T09:26:11.300Z,100789.37
2023-05-13T09:29:39.757Z,100791.84
2023-05-13T09:32:47.322Z,100780.94
2023-05-13T09:35:50.822Z,100774.52
2023-05-13T09:38:45.774Z,100769.87
2023-05-13T09:41:52.686Z,100778.83
2023-05-13T09:45:00.276Z,100775.79
2023-05-13T09:48:05.992Z,100775.80
2023-05-13T09:51:13.536Z,100768.46
2023-05-13T09:54:21.763Z,100763.39
2023-05-13T09:57:28.753Z,100763.96
2023-05-13T10:00:35.956Z,100763.12
2023-05-13T10:03:43.016Z,100755.46
2023-05-13T10:06:48.726Z,100748.30
2023-05-13T10:09:54.464Z,100752.80
2023-05-13T10:13:00.634Z,100753.83
2023-05-13T10:16:14.515Z,100760.00
2023-05-13T10:19:20.728Z,100757.38
2023-05-13T10:22:26.110Z,100753.43
2023-05-13T10:25:39.048Z,100750.16
2023-05-13T10:28:44.470Z,100745.94
2023-05-13T10:31:49.732Z,100741.95
2023-05-13T10:34:56.042Z,100742.65
2023-05-13T10:38:29.804Z,100733.17
2023-05-13T10:42:00.739Z,100738.81
2023-05-13T10:45:08.601Z,100737.03
2023-05-13T10:48:22.092Z,100749.22
2023-05-13T10:51:31.905Z,100747.12
2023-05-13T10:54:38.548Z,100737.94
2023-05-13T10:57:50.289Z,100736.89
2023-05-13T11:00:59.730Z,100738.05
2023-05-13T11:04:10.289Z,100739.63
2023-05-13T11:07:18.296Z,100735.28
2023-05-13T11:10:40.019Z,100729.76
2023-05-13T11:13:52.094Z,100727.90
2023-05-13T11:17:05.198Z,100725.11
2023-05-13T11:20:10.575Z,100723.97
2023-05-13T11:23:16.013Z,100719.48
2023-05-13T11:26:28.724Z,100712.23
2023-05-13T11:29:51.464Z,100721.30
2023-05-13T11:33:14.452Z,100724.27
2023-05-13T11:36:20.002Z,100708.53
2023-05-13T11:39:33.699Z,100707.92
2023-05-13T11:42:40.052Z,100714.66
2023-05-13T11:45:47.834Z,100719.48
2023-05-13T11:48:55.420Z,100725.33
2023-05-13T11:52:00.809Z,100718.05
2023-05-13T11:55:07.192Z,100718.25
2023-05-13T11:58:13.156Z,100719.55
2023-05-13T12:01:19.044Z,100713.99
2023-05-13T12:04:25.389Z,100708.98
2023-05-13T12:07:40.914Z,100704.25
2023-05-13T12:10:46.790Z,100697.48
2023-05-13T12:13:52.560Z,100693.54
2023-05-13T12:16:59.192Z,100697.73
2023-05-13T12:20:26.544Z,100689.26
2023-05-13T12:23:31.932Z,100688.98
2023-05-13T12:26:29.848Z,100686.12
2023-05-13T12:29:35.309Z,100683.44
2023-05-13T12:32:41.302Z,100686.00
2023-05-13T12:35:48.012Z,100686.97
2023-05-13T12:38:53.445Z,100689.64
2023-05-13T12:42:06.842Z,100684.99
2023-05-13T12:45:12.838Z,100694.78
2023-05-13T12:48:18.738Z,100679.16
2023-05-13T12:51:24.671Z,100685.84
2023-05-13T12:54:30.190Z,100681.84
2023-05-13T12:57:31.075Z,100680.52
2023-05-13T13:00:36.516Z,100678.82
2023-05-13T13:03:42.431Z,100674.52
2023-05-13T13:06:47.931Z,100668.86
2023-05-13T13:09:54.143Z,100671.02
2023-05-13T13:13:00.764Z,100674.13
2023-05-13T13:16:06.923Z,100666.83
2023-05-13T13:19:11.865Z,100669.37
2023-05-13T13:22:17.300Z,100660.63
2023-05-13T13:25:24.356Z,100662.30
2023-05-13T13:28:31.214Z,100657.00
2023-05-13T13:31:39.013Z,100656.33
2023-05-13T13:34:44.475Z,100653.55
2023-05-13T13:37:49.900Z,100656.48
2023-05-13T13:40:57.352Z,100653.85
2023-05-13T13:44:03.782Z,100649.09
2023-05-13T13:47:09.905Z,100659.21
2023-05-13T13:50:15.730Z,100651.45
2023-05-13T13:53:21.605Z,100658.47
2023-05-13T13:56:27.803Z,100665.84
2023-05-13T13:59:26.687Z,100659.91
2023-05-13T14:02:34.078Z,100665.28
2023-05-13T14:05:39.802Z,100666.12
2023-05-13T14:08:45.544Z,100666.64
2023-05-13T14:11:45.396Z,100664.91
2023-05-13T14:14:50.978Z,100661.25
2023-05-13T14:17:57.028Z,100663.90
2023-05-13T14:21:03.277Z,100661.99
2023-05-13T14:24:08.829Z,100663.42
2023-05-13T14:27:15.737Z,100661.42
2023-05-13T14:30:22.251Z,100664.25
2023-05-13T14:33:28.554Z,100661.17
2023-05-13T14:36:34.285Z,100657.81
2023-05-13T14:39:39.160Z,100652.17
2023-05-13T14:42:37.101Z,100656.64
2023-05-13T14:45:42.867Z,100654.13
2023-05-13T14:48:41.817Z,100660.28
2023-05-13T14:51:47.626Z,100657.17
2023-05-13T14:54:47.460Z,100648.72
2023-05-13T14:57:53.980Z,100655.16
2023-05-13T15:01:00.558Z,100655.23
2023-05-13T15:04:08.569Z,100651.92
2023-05-13T15:07:15.217Z,100654.16
2023-05-13T15:10:22.195Z,100657.50
2023-05-13T15:13:31.565Z,100652.19
2023-05-13T15:16:36.756Z,100656.99
2023-05-13T15:19:42.677Z,100655.91
2023-05-13T15:22:48.555Z,100655.33
2023-05-13T15:25:47.946Z,100655.91
2023-05-13T15:28:40.848Z,100653.63
2023-05-13T15:31:47.521Z,100655.04
2023-05-13T15:34:54.286Z,100656.70
2023-05-13T15:38:00.622Z,100659.53
2023-05-13T15:41:05.505Z,100655.30
2023-05-13T15:44:11.906Z,100661.78
2023-05-13T15:47:18.288Z,100664.86
2023-05-13T15:50:25.441Z,100657.56
2023-05-13T15:53:30.881Z,100664.33
2023-05-13T15:56:37.869Z,100667.12
2023-05-13T15:59:42.797Z,100666.86
2023-05-13T16:02:45.973Z,100673.30
2023-05-13T16:05:31.363Z,100670.48
2023-05-13T16:08:23.673Z,100671.34
2023-05-13T16:11:09.657Z,100671.52
2023-05-13T16:14:02.905Z,100672.16
2023-05-13T16:17:07.269Z,100674.67
2023-05-13T16:20:13.685Z,100675.79
2023-05-13T16:23:21.236Z,100675.42
2023-05-13T16:26:28.370Z,100680.47
2023-05-13T16:29:34.603Z,100675.78
2023-05-13T16:32:41.699Z,100682.31
2023-05-13T16:35:47.154Z,100679.50
2023-05-13T16:38:54.812Z,100685.00
2023-05-13T16:41:59.855Z,100686.27
2023-05-13T16:45:06.095Z,100684.18
2023-05-13T16:48:12.202Z,100681.13
2023-05-13T16:51:18.720Z,100681.95
2023-05-13T16:54:23.972Z,100693.18
2023-05-13T16:57:30.499Z,100691.45
2023-05-13T17:00:37.169Z,100691.40
2023-05-13T17:03:43.617Z,100684.66
2023-05-13T17:06:50.501Z,100686.34
2023-05-13T17:09:56.450Z,100689.12
2023-05-13T17:13:02.200Z,100688.80
2023-05-13T17:16:08.719Z,100689.25
2023-05-13T17:19:14.726Z,100682.08
2023-05-13T17:22:19.796Z,100681.02
2023-05-13T17:25:24.529Z,100683.19
2023-05-13T17:28:29.990Z,100685.09
2023-05-13T17:31:35.782Z,100684.90
2023-05-13T17:34:41.014Z,100684.55
2023-05-13T17:37:46.593Z,100689.89
2023-05-13T17:40:52.920Z,100694.48
2023-05-13T17:43:58.527Z,100696.78
2023-05-13T17:47:04.637Z,100693.25
2023-05-13T17:50:09.448Z,100696.71
2023-05-13T17:53:15.167Z,100695.78
2023-05-13T17:56:21.428Z,100700.39
2023-05-13T17:59:27.228Z,100701.54
2023-05-13T18:02:32.901Z,100700.48
2023-05-13T18:05:39.829Z,100711.21
2023-05-13T18:08:46.663Z,100707.48
2023-05-13T18:11:51.999Z,100709.45
2023-05-13T18:14:57.959Z,100708.66
2023-05-13T18:18:04.408Z,100720.98
2023-05-13T18:21:09.956Z,100716.76
2023-05-13T18:24:15.545Z,100714.70
2023-05-13T18:27:22.230Z,100714.23
2023-05-13T18:30:31.030Z,100715.59
2023-05-13T18:33:36.527Z,100716.61
2023-05-13T18:36:42.944Z,100719.42
2023-05-13T18:39:50.882Z,100718.83
2023-05-13T18:42:49.417Z,100716.48
2023-05-13T18:45:41.684Z,100721.36
2023-05-13T18:48:47.679Z,100717.12
2023-05-13T18:51:53.449Z,100721.62
2023-05-13T18:54:59.316Z,100725.89
2023-05-13T18:58:06.017Z,100718.86
2023-05-13T19:01:13.376Z,100716.89
2023-05-13T19:04:21.032Z,100727.34
2023-05-13T19:07:27.622Z,100716.89
2023-05-13T19:10:39.102Z,100725.09
2023-05-13T19:16:48.439Z,100721.75
2023-05-13T19:19:54.488Z,100722.16
2023-05-13T19:23:00.272Z,100717.48
2023-05-13T19:26:05.371Z,100719.43
2023-05-13T19:29:11.568Z,100721.28
2023-05-13T19:32:16.240Z,100719.95
2023-05-13T19:35:23.585Z,100718.37
2023-05-13T19:38:31.447Z,100711.25
2023-05-13T19:41:37.248Z,100712.52
2023-05-13T19:44:42.271Z,100713.37
2023-05-13T19:47:48.959Z,100708.44
2023-05-13T19:50:55.515Z,100704.35
2023-05-13T19:54:01.325Z,100699.37
2023-05-13T19:57:07.837Z,100705.16
2023-05-13T20:00:13.274Z,100704.11
2023-05-13T20:03:20.293Z,100698.33
2023-05-13T20:06:26.651Z,100704.27
2023-05-13T20:09:33.938Z,100696.55
2023-05-13T20:12:39.815Z,100699.78
2023-05-13T20:15:47.243Z,100693.06
2023-05-13T20:18:53.222Z,100689.09
2023-05-13T20:21:58.758Z,100695.21
2023-05-13T20:25:08.183Z,100690.94
2023-05-13T20:28:06.871Z,100691.92
2023-05-13T20:30:53.604Z,100690.72
2023-05-13T20:33:46.051Z,100686.23
2023-05-13T20:36:51.830Z,100686.11
2023-05-13T20:39:57.967Z,100684.37
2023-05-13T20:43:02.747Z,100688.27
2023-05-13T20:46:08.614Z,100681.10
2023-05-13T20:49:14.629Z,100685.31
2023-05-13T20:52:20.004Z,100688.16
2023-05-13T20:55:27.694Z,100685.05
2023-05-13T20:58:32.899Z,100684.80
2023-05-13T21:01:40.561Z,100682.83
2023-05-13T21:04:47.110Z,100683.81
2023-05-13T21:07:52.707Z,100682.51
2023-05-13T21:10:57.717Z,100676.66
2023-05-13T21:14:03.489Z,100682.05
2023-05-13T21:17:10.232Z,100679.86
2023-05-13T21:20:15.923Z,100678.32
2023-05-13T21:23:22.442Z,100679.70
2023-05-13T21:26:29.322Z,100678.98
2023-05-13T21:29:36.933Z,100682.70
2023-05-13T21:32:41.904Z,100682.21
2023-05-13T21:35:48.958Z,100680.87
2023-05-13T21:38:55.663Z,100680.58
2023-05-13T21:42:00.698Z,100678.55
2023-05-13T21:45:06.201Z,100670.96
2023-05-13T21:48:11.528Z,100672.62
2023-05-13T21:51:17.160Z,100669.85
2023-05-13T21:54:22.808Z,100674.59
2023-05-13T21:57:29.198Z,100674.34
2023-05-13T22:00:34.894Z,100672.84
2023-05-13T22:03:40.021Z,100671.84
2023-05-13T22:06:40.408Z,100672.48
2023-05-13T22:09:32.679Z,100669.09
2023-05-13T22:12:37.596Z,100669.20
2023-05-13T22:15:43.627Z,100666.87
2023-05-13T22:18:43.963Z,100667.87
2023-05-13T22:21:49.593Z,100667.14
2023-05-13T22:24:56.801Z,100660.95
2023-05-13T22:28:02.455Z,100663.42
2023-05-13T22:31:07.396Z,100663.86
2023-05-13T22:34:13.115Z,100657.60
2023-05-13T22:37:19.236Z,100662.58
2023-05-13T22:40:25.680Z,100656.97
2023-05-13T22:43:31.901Z,100654.05
2023-05-13T22:46:37.669Z,100650.28
2023-05-13T22:49:43.186Z,100653.16
2023-05-13T22:52:49.379Z,100653.31
2023-05-13T22:55:55.818Z,100647.42
2023-05-13T22:59:01.257Z,100650.53
2023-05-13T23:02:07.814Z,100649.00
2023-05-13T23:05:14.573Z,100646.92
2023-05-13T23:08:20.213Z,100649.71
2023-05-13T23:11:26.092Z,100647.09
2023-05-13T23:14:33.967Z,100643.66
2023-05-13T23:17:39.611Z,100643.73
2023-05-13T23:20:44.664Z,100647.73
2023-05-13T23:23:51.402Z,100646.60
2023-05-13T23:26:57.536Z,100655.47
2023-05-13T23:30:02.624Z,100646.08
2023-05-13T23:33:08.466Z,100649.80
2023-05-13T23:36:13.949Z,100647.09
2023-05-13T23:39:20.726Z,100643.70
2023-05-13T23:42:25.762Z,100647.11
2023-05-13T23:45:31.773Z,100644.79
2023-05-13T23:48:38.283Z,100646.69
2023-05-13T23:51:43.994Z,100645.55
2023-05-13T23:54:50.342Z,100650.39
2023-05-13T23:57:56.967Z,100648.99
